Salitpa, Alabama
Current Conditions -  °F | °C
As of 3:55 AM on Sunday 25 Jan 2015 (Local Time) from KDYA Reporting Station
Clear Clear  
Wind Chill: 35°   Ceiling: Unl
Heat Index: 35°   Visibility: 10mi
Dew Point: 35°   Wind: 3mph
Humidity: 100%   Direction: 160°SSE
Pressure: 30"   Gusts: NA
Location:  31.63°N, 88.02°W
Report Text: KDYA 250955Z AUTO 16003KT 10SM CLR 02/02 A3000 RMK AO2 T00170017
Loading
Personal Weather Stations






























Interactive Weather Map New forecast layout! Learn more

10-Day Weather Forecast

Advertisements
Track Severe Weather on mobile